UNO12 VGHS-VYBG
Flight info
| Callsign | UNO12 |
|---|---|
| Flight time | 1h 5m |
| Altitude | 31000 |
| Route | ADMIL1 ADMIL G463 ONEKA B594 CTG B465 AVDAX |
| Aircraft | A400/H-SDE2E3FGHIJ4J5M1RWXY/LB1D1 |
Departure
| Time | 2026-04-26 04:02 |
|---|---|
| Airport | Hazrat Shahjalal International Airport (VGHS) |
Arrival
| Time | 2026-04-26 05:07 |
|---|---|
| Airport | Bagan Airport (VYBG) |
| Time | Latitude | Longitude | Altitude | Speed | Heading |
|---|---|---|---|---|---|
| 2026-04-26 03:32 | 23.85018 | 90.39997 | 45 ft | 0 kts | 234° |
| 2026-04-26 03:47 | 23.85021 | 90.40001 | 45 ft | 3 kts | 234° |
| 2026-04-26 03:47 | 23.85032 | 90.40018 | 63 ft | 3 kts | 234° |
| 2026-04-26 03:48 | 23.85043 | 90.40035 | 37 ft | 3 kts | 234° |
| 2026-04-26 03:48 | 23.85054 | 90.40051 | 37 ft | 3 kts | 234° |
| 2026-04-26 03:48 | 23.85065 | 90.40068 | 40 ft | 3 kts | 234° |
| 2026-04-26 03:48 | 23.85076 | 90.40085 | 39 ft | 3 kts | 234° |
| 2026-04-26 03:49 | 23.85085 | 90.40098 | 40 ft | 3 kts | 234° |
| 2026-04-26 03:49 | 23.85087 | 90.40102 | 40 ft | 0 kts | 234° |
| 2026-04-26 03:53 | 23.85083 | 90.40093 | 45 ft | 4 kts | 242° |
| 2026-04-26 03:54 | 23.85082 | 90.40049 | 45 ft | 8 kts | 287° |
| 2026-04-26 03:54 | 23.85131 | 90.40001 | 45 ft | 11 kts | 326° |
| 2026-04-26 03:54 | 23.85163 | 90.39962 | 45 ft | 7 kts | 282° |
| 2026-04-26 03:54 | 23.85132 | 90.39913 | 45 ft | 9 kts | 225° |
| 2026-04-26 03:55 | 23.85102 | 90.39862 | 45 ft | 9 kts | 258° |
| 2026-04-26 03:55 | 23.85144 | 90.39803 | 45 ft | 12 kts | 321° |
| 2026-04-26 03:55 | 23.85218 | 90.39743 | 45 ft | 14 kts | 323° |
| 2026-04-26 03:55 | 23.85304 | 90.39675 | 43 ft | 16 kts | 324° |
| 2026-04-26 03:56 | 23.85396 | 90.39603 | 45 ft | 17 kts | 324° |
| 2026-04-26 03:56 | 23.85485 | 90.39532 | 45 ft | 16 kts | 323° |
| 2026-04-26 03:56 | 23.85577 | 90.39457 | 43 ft | 17 kts | 323° |
| 2026-04-26 03:56 | 23.85673 | 90.39379 | 45 ft | 17 kts | 323° |
| 2026-04-26 03:57 | 23.85736 | 90.39291 | 45 ft | 11 kts | 289° |
| 2026-04-26 03:57 | 23.85730 | 90.39214 | 45 ft | 11 kts | 251° |
| 2026-04-26 03:57 | 23.85683 | 90.39134 | 45 ft | 14 kts | 234° |
| 2026-04-26 03:57 | 23.85622 | 90.39044 | 45 ft | 16 kts | 233° |
| 2026-04-26 03:58 | 23.85556 | 90.38946 | 44 ft | 9 kts | 234° |
| 2026-04-26 03:58 | 23.85554 | 90.38943 | 44 ft | 0 kts | 234° |
| 2026-04-26 03:58 | 23.85554 | 90.38942 | 44 ft | 1 kts | 234° |
| 2026-04-26 03:59 | 23.85536 | 90.38916 | 43 ft | 7 kts | 234° |
| 2026-04-26 03:59 | 23.85500 | 90.38886 | 44 ft | 6 kts | 198° |
| 2026-04-26 03:59 | 23.85456 | 90.38902 | 44 ft | 7 kts | 145° |
| 2026-04-26 03:59 | 23.85413 | 90.38933 | 45 ft | 8 kts | 145° |
| 2026-04-26 04:00 | 23.85408 | 90.38937 | 45 ft | 0 kts | 145° |
| 2026-04-26 04:00 | 23.85406 | 90.38939 | 45 ft | 1 kts | 145° |
| 2026-04-26 04:01 | 23.85349 | 90.38983 | 45 ft | 18 kts | 144° |
| 2026-04-26 04:01 | 23.85024 | 90.39236 | 44 ft | 107 kts | 144° |
| 2026-04-26 04:01 | 23.84219 | 90.39894 | 112 ft | 172 kts | 142° |
| 2026-04-26 04:01 | 23.83223 | 90.40732 | 614 ft | 189 kts | 141° |
| 2026-04-26 04:02 | 23.82109 | 90.41672 | 1002 ft | 218 kts | 144° |
| 2026-04-26 04:02 | 23.80893 | 90.42760 | 1694 ft | 235 kts | 141° |
| 2026-04-26 04:02 | 23.79593 | 90.43955 | 2091 ft | 252 kts | 141° |
| 2026-04-26 04:02 | 23.78235 | 90.45194 | 2458 ft | 256 kts | 141° |
| 2026-04-26 04:03 | 23.76860 | 90.46432 | 2819 ft | 256 kts | 142° |
| 2026-04-26 04:03 | 23.75481 | 90.47664 | 3184 ft | 257 kts | 142° |
| 2026-04-26 04:03 | 23.74092 | 90.48898 | 3532 ft | 259 kts | 142° |
| 2026-04-26 04:03 | 23.72685 | 90.50143 | 3905 ft | 261 kts | 143° |
| 2026-04-26 04:04 | 23.71271 | 90.51394 | 4269 ft | 262 kts | 143° |
| 2026-04-26 04:04 | 23.69871 | 90.52634 | 4635 ft | 264 kts | 143° |
| 2026-04-26 04:04 | 23.68425 | 90.53928 | 4986 ft | 266 kts | 143° |
| 2026-04-26 04:04 | 23.67000 | 90.55209 | 5340 ft | 270 kts | 143° |
| 2026-04-26 04:05 | 23.65542 | 90.56522 | 5708 ft | 273 kts | 143° |
| 2026-04-26 04:05 | 23.64068 | 90.57851 | 6069 ft | 277 kts | 144° |
| 2026-04-26 04:05 | 23.62572 | 90.59201 | 6431 ft | 281 kts | 144° |
| 2026-04-26 04:05 | 23.61060 | 90.60565 | 6782 ft | 284 kts | 144° |
| 2026-04-26 04:06 | 23.59535 | 90.61939 | 7132 ft | 286 kts | 144° |
| 2026-04-26 04:06 | 23.57992 | 90.63328 | 7475 ft | 289 kts | 144° |
| 2026-04-26 04:06 | 23.56433 | 90.64730 | 7836 ft | 291 kts | 144° |
| 2026-04-26 04:06 | 23.54862 | 90.66140 | 8193 ft | 294 kts | 144° |
| 2026-04-26 04:07 | 23.53273 | 90.67566 | 8553 ft | 297 kts | 144° |
| 2026-04-26 04:07 | 23.51666 | 90.69006 | 8925 ft | 300 kts | 144° |
| 2026-04-26 04:07 | 23.50070 | 90.70437 | 9293 ft | 302 kts | 144° |
| 2026-04-26 04:07 | 23.48439 | 90.71900 | 9673 ft | 305 kts | 144° |
| 2026-04-26 04:08 | 23.46794 | 90.73375 | 10021 ft | 309 kts | 144° |
| 2026-04-26 04:08 | 23.45100 | 90.74893 | 10368 ft | 320 kts | 143° |
| 2026-04-26 04:08 | 23.43366 | 90.76446 | 10718 ft | 325 kts | 143° |
| 2026-04-26 04:08 | 23.41612 | 90.78018 | 11066 ft | 328 kts | 143° |
| 2026-04-26 04:09 | 23.39844 | 90.79604 | 11416 ft | 331 kts | 143° |
| 2026-04-26 04:09 | 23.38054 | 90.81209 | 11784 ft | 334 kts | 143° |
| 2026-04-26 04:09 | 23.36252 | 90.82823 | 12148 ft | 337 kts | 143° |
| 2026-04-26 04:09 | 23.34431 | 90.84453 | 12519 ft | 340 kts | 143° |
| 2026-04-26 04:10 | 23.32620 | 90.86074 | 12888 ft | 343 kts | 143° |
| 2026-04-26 04:10 | 23.30745 | 90.87752 | 13266 ft | 346 kts | 143° |
| 2026-04-26 04:10 | 23.28908 | 90.89395 | 13644 ft | 349 kts | 143° |
| 2026-04-26 04:10 | 23.27019 | 90.91084 | 13982 ft | 352 kts | 143° |
| 2026-04-26 04:11 | 23.25120 | 90.92782 | 14336 ft | 354 kts | 143° |
| 2026-04-26 04:11 | 23.23213 | 90.94486 | 14680 ft | 356 kts | 143° |
| 2026-04-26 04:11 | 23.21296 | 90.96200 | 15033 ft | 357 kts | 143° |
| 2026-04-26 04:11 | 23.19376 | 90.97916 | 15386 ft | 358 kts | 143° |
| 2026-04-26 04:12 | 23.17456 | 90.99640 | 15747 ft | 359 kts | 143° |
| 2026-04-26 04:12 | 23.15531 | 91.01388 | 16107 ft | 361 kts | 142° |
| 2026-04-26 04:12 | 23.13601 | 91.03150 | 16470 ft | 363 kts | 142° |
| 2026-04-26 04:12 | 23.11667 | 91.04920 | 16852 ft | 364 kts | 142° |
| 2026-04-26 04:13 | 23.09725 | 91.06700 | 17218 ft | 366 kts | 142° |
| 2026-04-26 04:13 | 23.07774 | 91.08488 | 17599 ft | 368 kts | 142° |
| 2026-04-26 04:13 | 23.05816 | 91.10282 | 17981 ft | 369 kts | 143° |
| 2026-04-26 04:13 | 23.03846 | 91.12085 | 18340 ft | 371 kts | 143° |
| 2026-04-26 04:14 | 23.01890 | 91.13875 | 18670 ft | 373 kts | 143° |
| 2026-04-26 04:14 | 22.99900 | 91.15694 | 19005 ft | 375 kts | 143° |
| 2026-04-26 04:14 | 22.97901 | 91.17521 | 19337 ft | 377 kts | 143° |
| 2026-04-26 04:14 | 22.95894 | 91.19354 | 19696 ft | 379 kts | 143° |
| 2026-04-26 04:15 | 22.94523 | 91.20606 | 19937 ft | 380 kts | 143° |
| 2026-04-26 04:15 | 22.92503 | 91.22450 | 20284 ft | 382 kts | 143° |
| 2026-04-26 04:15 | 22.90458 | 91.24315 | 20648 ft | 384 kts | 143° |
| 2026-04-26 04:15 | 22.88430 | 91.26165 | 21005 ft | 386 kts | 144° |
| 2026-04-26 04:16 | 22.86367 | 91.28047 | 21370 ft | 388 kts | 144° |
| 2026-04-26 04:16 | 22.84296 | 91.29934 | 21744 ft | 390 kts | 144° |
| 2026-04-26 04:16 | 22.82212 | 91.31833 | 22118 ft | 392 kts | 144° |
| 2026-04-26 04:16 | 22.80088 | 91.33767 | 22512 ft | 394 kts | 144° |
| 2026-04-26 04:17 | 22.78010 | 91.35660 | 22885 ft | 397 kts | 144° |
| 2026-04-26 04:17 | 22.75894 | 91.37585 | 23270 ft | 399 kts | 144° |
| 2026-04-26 04:17 | 22.73759 | 91.39527 | 23643 ft | 401 kts | 144° |
| 2026-04-26 04:17 | 22.71612 | 91.41478 | 23961 ft | 404 kts | 145° |
| 2026-04-26 04:18 | 22.69450 | 91.43443 | 24287 ft | 408 kts | 145° |
| 2026-04-26 04:18 | 22.67264 | 91.45428 | 24619 ft | 411 kts | 145° |
| 2026-04-26 04:18 | 22.65063 | 91.47426 | 24962 ft | 414 kts | 145° |
| 2026-04-26 04:18 | 22.62855 | 91.49431 | 25296 ft | 416 kts | 145° |
| 2026-04-26 04:19 | 22.60633 | 91.51447 | 25645 ft | 418 kts | 146° |
| 2026-04-26 04:19 | 22.58397 | 91.53476 | 25996 ft | 420 kts | 146° |
| 2026-04-26 04:19 | 22.56160 | 91.55504 | 26352 ft | 422 kts | 146° |
| 2026-04-26 04:19 | 22.53895 | 91.57555 | 26712 ft | 423 kts | 146° |
| 2026-04-26 04:20 | 22.51633 | 91.59601 | 27076 ft | 425 kts | 146° |
| 2026-04-26 04:20 | 22.49355 | 91.61660 | 27456 ft | 427 kts | 147° |
| 2026-04-26 04:20 | 22.47076 | 91.63719 | 27824 ft | 429 kts | 147° |
| 2026-04-26 04:20 | 22.44782 | 91.65790 | 28200 ft | 430 kts | 147° |
| 2026-04-26 04:21 | 22.42478 | 91.67869 | 28588 ft | 432 kts | 147° |
| 2026-04-26 04:21 | 22.40171 | 91.69950 | 28968 ft | 433 kts | 147° |
| 2026-04-26 04:21 | 22.37850 | 91.72043 | 29363 ft | 433 kts | 147° |
| 2026-04-26 04:21 | 22.35538 | 91.74126 | 29752 ft | 434 kts | 148° |
| 2026-04-26 04:22 | 22.33216 | 91.76218 | 30133 ft | 434 kts | 148° |
| 2026-04-26 04:22 | 22.30932 | 91.78294 | 30462 ft | 436 kts | 145° |
| 2026-04-26 04:22 | 22.28784 | 91.80640 | 30779 ft | 444 kts | 135° |
| 2026-04-26 04:22 | 22.27005 | 91.83417 | 30912 ft | 459 kts | 122° |
| 2026-04-26 04:23 | 22.25771 | 91.86660 | 30910 ft | 473 kts | 106° |
| 2026-04-26 04:23 | 22.24848 | 91.93807 | 30903 ft | 488 kts | 93° |
| 2026-04-26 04:24 | 22.24461 | 92.01167 | 30918 ft | 493 kts | 92° |
| 2026-04-26 04:24 | 22.24088 | 92.08555 | 30913 ft | 493 kts | 92° |
| 2026-04-26 04:25 | 22.23628 | 92.15945 | 30906 ft | 493 kts | 93° |
| 2026-04-26 04:25 | 22.23111 | 92.23328 | 30907 ft | 493 kts | 94° |
| 2026-04-26 04:25 | 22.22655 | 92.26985 | 30896 ft | 492 kts | 107° |
| 2026-04-26 04:26 | 22.21412 | 92.30407 | 30913 ft | 488 kts | 119° |
| 2026-04-26 04:26 | 22.18315 | 92.36920 | 30910 ft | 488 kts | 121° |
| 2026-04-26 04:27 | 22.15233 | 92.43449 | 30921 ft | 488 kts | 120° |
| 2026-04-26 04:27 | 22.13717 | 92.46734 | 30723 ft | 490 kts | 120° |
| 2026-04-26 04:27 | 22.12206 | 92.50035 | 30482 ft | 489 kts | 120° |
| 2026-04-26 04:27 | 22.10707 | 92.53327 | 30266 ft | 489 kts | 119° |
| 2026-04-26 04:28 | 22.09210 | 92.56619 | 30043 ft | 490 kts | 119° |
| 2026-04-26 04:28 | 22.07709 | 92.59919 | 29772 ft | 490 kts | 119° |
| 2026-04-26 04:28 | 22.06210 | 92.63216 | 29511 ft | 490 kts | 119° |
| 2026-04-26 04:28 | 22.04731 | 92.66467 | 29248 ft | 487 kts | 119° |
| 2026-04-26 04:29 | 22.03245 | 92.69732 | 28987 ft | 485 kts | 118° |
| 2026-04-26 04:29 | 22.01759 | 92.72996 | 28728 ft | 482 kts | 119° |
| 2026-04-26 04:29 | 22.00286 | 92.76231 | 28469 ft | 479 kts | 119° |
| 2026-04-26 04:29 | 21.98828 | 92.79432 | 28218 ft | 475 kts | 119° |
| 2026-04-26 04:30 | 21.97372 | 92.82625 | 27964 ft | 471 kts | 119° |
| 2026-04-26 04:30 | 21.95934 | 92.85778 | 27720 ft | 468 kts | 119° |
| 2026-04-26 04:30 | 21.94499 | 92.88921 | 27476 ft | 466 kts | 119° |
| 2026-04-26 04:30 | 21.93073 | 92.92043 | 27222 ft | 463 kts | 119° |
| 2026-04-26 04:31 | 21.91656 | 92.95143 | 26988 ft | 460 kts | 119° |
| 2026-04-26 04:31 | 21.90246 | 92.98228 | 26756 ft | 457 kts | 119° |
| 2026-04-26 04:31 | 21.88849 | 93.01281 | 26513 ft | 455 kts | 119° |
| 2026-04-26 04:31 | 21.87450 | 93.04336 | 26259 ft | 452 kts | 119° |
| 2026-04-26 04:32 | 21.86069 | 93.07349 | 26042 ft | 450 kts | 119° |
| 2026-04-26 04:32 | 21.84686 | 93.10368 | 25810 ft | 447 kts | 119° |
| 2026-04-26 04:32 | 21.83333 | 93.13319 | 25582 ft | 444 kts | 119° |
| 2026-04-26 04:32 | 21.81969 | 93.16292 | 25350 ft | 441 kts | 119° |
| 2026-04-26 04:33 | 21.80620 | 93.19231 | 25140 ft | 438 kts | 119° |
| 2026-04-26 04:33 | 21.79271 | 93.22170 | 24920 ft | 437 kts | 119° |
| 2026-04-26 04:33 | 21.77928 | 93.25090 | 24695 ft | 435 kts | 119° |
| 2026-04-26 04:33 | 21.76586 | 93.28009 | 24460 ft | 432 kts | 120° |
| 2026-04-26 04:34 | 21.75259 | 93.30896 | 24254 ft | 430 kts | 119° |
| 2026-04-26 04:34 | 21.73941 | 93.33762 | 24026 ft | 428 kts | 120° |
| 2026-04-26 04:34 | 21.72619 | 93.36632 | 23820 ft | 426 kts | 119° |
| 2026-04-26 04:34 | 21.71306 | 93.39480 | 23608 ft | 425 kts | 119° |
| 2026-04-26 04:35 | 21.69997 | 93.42315 | 23353 ft | 422 kts | 118° |
| 2026-04-26 04:35 | 21.68688 | 93.45149 | 23090 ft | 420 kts | 119° |
| 2026-04-26 04:35 | 21.67390 | 93.47958 | 22844 ft | 418 kts | 119° |
| 2026-04-26 04:35 | 21.66099 | 93.50751 | 22583 ft | 415 kts | 119° |
| 2026-04-26 04:36 | 21.64836 | 93.53482 | 22337 ft | 412 kts | 119° |
| 2026-04-26 04:36 | 21.63563 | 93.56235 | 22090 ft | 411 kts | 118° |
| 2026-04-26 04:36 | 21.62291 | 93.58982 | 21849 ft | 408 kts | 118° |
| 2026-04-26 04:36 | 21.61031 | 93.61700 | 21585 ft | 405 kts | 118° |
| 2026-04-26 04:37 | 21.59783 | 93.64392 | 21347 ft | 402 kts | 118° |
| 2026-04-26 04:37 | 21.58538 | 93.67078 | 21103 ft | 400 kts | 118° |
| 2026-04-26 04:37 | 21.57300 | 93.69747 | 20849 ft | 397 kts | 118° |
| 2026-04-26 04:37 | 21.56073 | 93.72391 | 20606 ft | 395 kts | 118° |
| 2026-04-26 04:38 | 21.54851 | 93.75025 | 20380 ft | 393 kts | 118° |
| 2026-04-26 04:38 | 21.53635 | 93.77644 | 20149 ft | 390 kts | 118° |
| 2026-04-26 04:38 | 21.52430 | 93.80239 | 19901 ft | 388 kts | 118° |
| 2026-04-26 04:38 | 21.51226 | 93.82828 | 19668 ft | 386 kts | 117° |
| 2026-04-26 04:39 | 21.50028 | 93.85403 | 19440 ft | 384 kts | 117° |
| 2026-04-26 04:39 | 21.48843 | 93.87954 | 19202 ft | 381 kts | 118° |
| 2026-04-26 04:39 | 21.47663 | 93.90491 | 18972 ft | 379 kts | 118° |
| 2026-04-26 04:39 | 21.46487 | 93.93015 | 18750 ft | 376 kts | 117° |
| 2026-04-26 04:40 | 21.45322 | 93.95511 | 18527 ft | 373 kts | 118° |
| 2026-04-26 04:40 | 21.44162 | 93.98000 | 18299 ft | 371 kts | 117° |
| 2026-04-26 04:40 | 21.43008 | 94.00472 | 18048 ft | 370 kts | 117° |
| 2026-04-26 04:40 | 21.41860 | 94.02930 | 17780 ft | 368 kts | 117° |
| 2026-04-26 04:41 | 21.40718 | 94.05377 | 17521 ft | 366 kts | 117° |
| 2026-04-26 04:41 | 21.39594 | 94.07786 | 17277 ft | 364 kts | 117° |
| 2026-04-26 04:41 | 21.38448 | 94.10239 | 17011 ft | 361 kts | 117° |
| 2026-04-26 04:41 | 21.37338 | 94.12613 | 16770 ft | 359 kts | 117° |
| 2026-04-26 04:42 | 21.36216 | 94.15007 | 16515 ft | 358 kts | 117° |
| 2026-04-26 04:42 | 21.35102 | 94.17388 | 16262 ft | 356 kts | 116° |
| 2026-04-26 04:42 | 21.33998 | 94.19748 | 16020 ft | 354 kts | 117° |
| 2026-04-26 04:42 | 21.32893 | 94.22107 | 15769 ft | 352 kts | 117° |
| 2026-04-26 04:43 | 21.31794 | 94.24452 | 15522 ft | 350 kts | 116° |
| 2026-04-26 04:43 | 21.30704 | 94.26776 | 15293 ft | 349 kts | 116° |
| 2026-04-26 04:43 | 21.29617 | 94.29094 | 15059 ft | 347 kts | 116° |
| 2026-04-26 04:43 | 21.28535 | 94.31400 | 14817 ft | 345 kts | 116° |
| 2026-04-26 04:44 | 21.27458 | 94.33694 | 14581 ft | 344 kts | 116° |
| 2026-04-26 04:44 | 21.26384 | 94.35981 | 14341 ft | 342 kts | 116° |
| 2026-04-26 04:44 | 21.25315 | 94.38255 | 13937 ft | 341 kts | 116° |
| 2026-04-26 04:44 | 21.24249 | 94.40522 | 13376 ft | 338 kts | 116° |
| 2026-04-26 04:45 | 21.23196 | 94.42760 | 12828 ft | 334 kts | 116° |
| 2026-04-26 04:45 | 21.22155 | 94.44971 | 12313 ft | 330 kts | 116° |
| 2026-04-26 04:45 | 21.21126 | 94.47159 | 11790 ft | 327 kts | 116° |
| 2026-04-26 04:45 | 21.20107 | 94.49325 | 11280 ft | 325 kts | 116° |
| 2026-04-26 04:46 | 21.19095 | 94.51477 | 10763 ft | 322 kts | 116° |
| 2026-04-26 04:46 | 21.18090 | 94.53615 | 10252 ft | 319 kts | 116° |
| 2026-04-26 04:46 | 21.17121 | 94.55671 | 10074 ft | 306 kts | 116° |
| 2026-04-26 04:46 | 21.16163 | 94.57708 | 9574 ft | 307 kts | 116° |
| 2026-04-26 04:47 | 21.15189 | 94.59776 | 8881 ft | 312 kts | 116° |
| 2026-04-26 04:47 | 21.14224 | 94.61819 | 8549 ft | 303 kts | 116° |
| 2026-04-26 04:47 | 21.13280 | 94.63820 | 8121 ft | 299 kts | 116° |
| 2026-04-26 04:47 | 21.12353 | 94.65786 | 7799 ft | 291 kts | 116° |
| 2026-04-26 04:48 | 21.10608 | 94.69493 | 7549 ft | 267 kts | 116° |
| 2026-04-26 04:48 | 21.09792 | 94.71235 | 7441 ft | 257 kts | 116° |
| 2026-04-26 04:48 | 21.09003 | 94.72924 | 7336 ft | 250 kts | 116° |
| 2026-04-26 04:49 | 21.08229 | 94.74576 | 7172 ft | 247 kts | 116° |
| 2026-04-26 04:49 | 21.07460 | 94.76214 | 7005 ft | 246 kts | 116° |
| 2026-04-26 04:49 | 21.06693 | 94.77844 | 6860 ft | 244 kts | 116° |
| 2026-04-26 04:49 | 21.05929 | 94.79461 | 6705 ft | 243 kts | 116° |
| 2026-04-26 04:50 | 21.05153 | 94.81105 | 6242 ft | 254 kts | 116° |
| 2026-04-26 04:50 | 21.04331 | 94.82837 | 5610 ft | 266 kts | 117° |
| 2026-04-26 04:50 | 21.03491 | 94.84603 | 5000 ft | 273 kts | 117° |
| 2026-04-26 04:50 | 21.02630 | 94.86408 | 4691 ft | 267 kts | 118° |
| 2026-04-26 04:51 | 21.01811 | 94.88141 | 4566 ft | 255 kts | 116° |
| 2026-04-26 04:51 | 21.01324 | 94.89911 | 4445 ft | 247 kts | 92° |
| 2026-04-26 04:51 | 21.01762 | 94.91638 | 4341 ft | 241 kts | 56° |
| 2026-04-26 04:51 | 21.03038 | 94.92735 | 4216 ft | 238 kts | 19° |
| 2026-04-26 04:52 | 21.04685 | 94.93026 | 3823 ft | 246 kts | 1° |
| 2026-04-26 04:52 | 21.06427 | 94.93030 | 3341 ft | 255 kts | 358° |
| 2026-04-26 04:52 | 21.08213 | 94.92988 | 2869 ft | 260 kts | 358° |
| 2026-04-26 04:52 | 21.10040 | 94.92952 | 2391 ft | 265 kts | 359° |
| 2026-04-26 04:53 | 21.11908 | 94.92872 | 1794 ft | 272 kts | 356° |
| 2026-04-26 04:53 | 21.13830 | 94.93002 | 1073 ft | 280 kts | 8° |
| 2026-04-26 04:53 | 21.15727 | 94.93008 | 571 ft | 262 kts | 357° |
| 2026-04-26 04:53 | 21.17412 | 94.93317 | 526 ft | 232 kts | 27° |
| 2026-04-26 04:54 | 21.18725 | 94.94068 | 698 ft | 201 kts | 11° |
| 2026-04-26 04:54 | 21.20025 | 94.93987 | 961 ft | 178 kts | 346° |
| 2026-04-26 04:54 | 21.21185 | 94.93665 | 1226 ft | 182 kts | 346° |
| 2026-04-26 04:54 | 21.22484 | 94.93383 | 1454 ft | 194 kts | 351° |
| 2026-04-26 04:55 | 21.23835 | 94.93217 | 1672 ft | 198 kts | 356° |
| 2026-04-26 04:55 | 21.25320 | 94.93126 | 1911 ft | 231 kts | 358° |
| 2026-04-26 04:55 | 21.27001 | 94.93076 | 1921 ft | 248 kts | 359° |
| 2026-04-26 04:55 | 21.28725 | 94.93161 | 1911 ft | 247 kts | 16° |
| 2026-04-26 04:56 | 21.30134 | 94.94141 | 1927 ft | 244 kts | 54° |
| 2026-04-26 04:56 | 21.30671 | 94.95816 | 1918 ft | 240 kts | 94° |
| 2026-04-26 04:56 | 21.30112 | 94.97451 | 1976 ft | 235 kts | 133° |
| 2026-04-26 04:56 | 21.28759 | 94.98407 | 2288 ft | 236 kts | 155° |
| 2026-04-26 04:57 | 21.27287 | 94.99171 | 2639 ft | 239 kts | 153° |
| 2026-04-26 04:57 | 21.25864 | 95.00089 | 2995 ft | 240 kts | 147° |
| 2026-04-26 04:57 | 21.24516 | 95.01160 | 3374 ft | 244 kts | 143° |
| 2026-04-26 04:57 | 21.23207 | 95.02332 | 3717 ft | 245 kts | 140° |
| 2026-04-26 04:58 | 21.21939 | 95.03558 | 4064 ft | 246 kts | 138° |
| 2026-04-26 04:58 | 21.20693 | 95.04816 | 4427 ft | 247 kts | 137° |
| 2026-04-26 04:58 | 21.19451 | 95.06098 | 4780 ft | 249 kts | 137° |
| 2026-04-26 04:58 | 21.18201 | 95.07400 | 4896 ft | 248 kts | 137° |
| 2026-04-26 04:59 | 21.16988 | 95.08671 | 4807 ft | 240 kts | 136° |
| 2026-04-26 04:59 | 21.15819 | 95.09902 | 4793 ft | 232 kts | 136° |
| 2026-04-26 04:59 | 21.14688 | 95.11098 | 4788 ft | 224 kts | 136° |
| 2026-04-26 04:59 | 21.13565 | 95.12198 | 4710 ft | 212 kts | 149° |
| 2026-04-26 05:00 | 21.12203 | 95.12510 | 4606 ft | 200 kts | 194° |
| 2026-04-26 05:00 | 21.11401 | 95.12081 | 4531 ft | 195 kts | 224° |
| 2026-04-26 05:00 | 21.10409 | 95.10536 | 4477 ft | 186 kts | 240° |
| 2026-04-26 05:00 | 21.09800 | 95.09350 | 4479 ft | 177 kts | 239° |
| 2026-04-26 05:01 | 21.09190 | 95.08207 | 4381 ft | 178 kts | 238° |
| 2026-04-26 05:01 | 21.08532 | 95.07045 | 4052 ft | 186 kts | 237° |
| 2026-04-26 05:01 | 21.07826 | 95.05852 | 3679 ft | 192 kts | 236° |
| 2026-04-26 05:01 | 21.07333 | 95.05037 | 3467 ft | 193 kts | 235° |
| 2026-04-26 05:02 | 21.06604 | 95.03847 | 3229 ft | 190 kts | 235° |
| 2026-04-26 05:02 | 21.05876 | 95.02673 | 2992 ft | 189 kts | 235° |
| 2026-04-26 05:02 | 21.05154 | 95.01517 | 2760 ft | 189 kts | 235° |
| 2026-04-26 05:02 | 21.04421 | 95.00347 | 2512 ft | 187 kts | 234° |
| 2026-04-26 05:03 | 21.03710 | 94.99212 | 2422 ft | 178 kts | 233° |
| 2026-04-26 05:03 | 21.03035 | 94.98143 | 2432 ft | 168 kts | 233° |
| 2026-04-26 05:03 | 21.02432 | 94.97125 | 2424 ft | 159 kts | 240° |
| 2026-04-26 05:03 | 21.02080 | 94.96028 | 2408 ft | 154 kts | 261° |
| 2026-04-26 05:04 | 21.02159 | 94.94902 | 2420 ft | 153 kts | 285° |
| 2026-04-26 05:04 | 21.02657 | 94.93911 | 2420 ft | 151 kts | 310° |
| 2026-04-26 05:04 | 21.03486 | 94.93208 | 2429 ft | 155 kts | 332° |
| 2026-04-26 05:04 | 21.04517 | 94.92907 | 2414 ft | 157 kts | 354° |
| 2026-04-26 05:05 | 21.05614 | 94.92875 | 2423 ft | 158 kts | 0° |
| 2026-04-26 05:05 | 21.06716 | 94.92897 | 2316 ft | 158 kts | 360° |
| 2026-04-26 05:05 | 21.07815 | 94.92922 | 2106 ft | 159 kts | 1° |
| 2026-04-26 05:05 | 21.08918 | 94.92941 | 1867 ft | 158 kts | 1° |
| 2026-04-26 05:06 | 21.10015 | 94.92955 | 1666 ft | 158 kts | 1° |
| 2026-04-26 05:06 | 21.11121 | 94.92968 | 1448 ft | 159 kts | 0° |
| 2026-04-26 05:06 | 21.12225 | 94.92981 | 1236 ft | 158 kts | 359° |
| 2026-04-26 05:06 | 21.13333 | 94.92992 | 1018 ft | 159 kts | 360° |
| 2026-04-26 05:07 | 21.14439 | 94.93001 | 793 ft | 158 kts | 1° |
| 2026-04-26 05:07 | 21.15534 | 94.93010 | 585 ft | 155 kts | 1° |
| 2026-04-26 05:07 | 21.16607 | 94.93019 | 453 ft | 155 kts | 0° |
| 2026-04-26 05:07 | 21.17590 | 94.92885 | 395 ft | 0 kts | 153° |